createdAt,value
2023-02-16T00:01:24.137Z,98227.56
2023-02-16T00:03:52.577Z,98232.00
2023-02-16T00:06:20.903Z,98233.81
2023-02-16T00:08:49.825Z,98228.44
2023-02-16T00:11:38.996Z,98226.72
2023-02-16T00:14:09.148Z,98217.78
2023-02-16T00:16:37.428Z,98218.69
2023-02-16T00:19:14.840Z,98223.22
2023-02-16T00:21:43.051Z,98217.91
2023-02-16T00:24:11.581Z,98227.03
2023-02-16T00:26:41.728Z,98225.25
2023-02-16T00:29:12.825Z,98234.19
2023-02-16T00:31:41.992Z,98239.56
2023-02-16T00:34:24.584Z,98231.50
2023-02-16T00:36:54.915Z,98229.75
2023-02-16T00:39:25.121Z,98236.00
2023-02-16T00:41:56.155Z,98227.06
2023-02-16T00:44:28.360Z,98236.09
2023-02-16T00:46:56.621Z,98231.66
2023-02-16T00:49:24.832Z,98231.72
2023-02-16T00:51:53.074Z,98228.16
2023-02-16T00:54:21.273Z,98230.00
2023-02-16T00:56:49.841Z,98235.28
2023-02-16T00:59:21.521Z,98228.97
2023-02-16T01:01:49.896Z,98225.44
2023-02-16T01:04:21.043Z,98231.66
2023-02-16T01:07:06.458Z,98231.66
2023-02-16T01:09:52.198Z,98228.03
2023-02-16T01:12:21.012Z,98226.28
2023-02-16T01:14:52.704Z,98224.47
2023-02-16T01:17:20.956Z,98214.69
2023-02-16T01:19:49.109Z,98212.94
2023-02-16T01:22:18.353Z,98213.81
2023-02-16T01:24:46.560Z,98219.19
2023-02-16T01:27:15.304Z,98215.63
2023-02-16T01:29:46.484Z,98209.38
2023-02-16T01:32:17.837Z,98208.53
2023-02-16T01:34:46.199Z,98218.31
2023-02-16T01:37:16.040Z,98217.44
2023-02-16T01:39:45.321Z,98222.81
2023-02-16T01:42:21.117Z,98215.72
2023-02-16T01:44:50.733Z,98215.72
2023-02-16T01:47:27.849Z,98219.28
2023-02-16T01:49:56.047Z,98220.19
2023-02-16T01:52:28.616Z,98220.19
2023-02-16T01:54:58.543Z,98217.50
2023-02-16T01:57:31.568Z,98220.28
2023-02-16T02:00:07.531Z,98222.00
2023-02-16T02:02:44.878Z,98221.16
2023-02-16T02:05:36.922Z,98218.63
2023-02-16T02:08:16.488Z,98215.06
2023-02-16T02:10:49.723Z,98218.63
2023-02-16T02:13:20.919Z,98217.75
2023-02-16T02:15:49.225Z,98213.34
2023-02-16T02:18:18.885Z,98211.56
2023-02-16T02:21:11.684Z,98214.25
2023-02-16T02:23:47.172Z,98211.56
2023-02-16T02:27:04.857Z,98212.53
2023-02-16T02:30:03.216Z,98200.03
2023-02-16T02:32:37.321Z,98195.56
2023-02-16T02:35:13.635Z,98198.31
2023-02-16T02:37:48.329Z,98201.00
2023-02-16T02:40:20.457Z,98199.25
2023-02-16T02:42:54.634Z,98195.72
2023-02-16T02:45:24.275Z,98191.19
2023-02-16T02:47:52.558Z,98193.97
2023-02-16T02:50:33.226Z,98184.09
2023-02-16T02:53:03.420Z,98189.47
2023-02-16T02:55:48.870Z,98191.28
2023-02-16T02:58:36.397Z,98185.91
2023-02-16T03:01:05.210Z,98193.97
2023-02-16T03:03:35.332Z,98178.88
2023-02-16T03:06:06.323Z,98180.63
2023-02-16T03:08:36.199Z,98178.88
2023-02-16T03:11:23.847Z,98174.47
2023-02-16T03:13:56.758Z,98183.41
2023-02-16T03:16:26.616Z,98174.47
2023-02-16T03:19:11.975Z,98173.50
2023-02-16T03:21:57.755Z,98177.16
2023-02-16T03:24:44.782Z,98176.28
2023-02-16T03:27:30.530Z,98178.97
2023-02-16T03:30:00.127Z,98172.72
2023-02-16T03:32:28.312Z,98178.09
2023-02-16T03:34:56.531Z,98170.91
2023-02-16T03:37:24.673Z,98177.16
2023-02-16T03:40:10.258Z,98173.50
2023-02-16T03:42:38.537Z,98175.34
2023-02-16T03:45:09.193Z,98175.25
2023-02-16T03:47:37.468Z,98174.47
2023-02-16T03:50:06.258Z,98172.56
2023-02-16T03:52:34.470Z,98177.94
2023-02-16T03:55:02.586Z,98177.94
2023-02-16T03:57:30.772Z,98174.38
2023-02-16T03:59:59.483Z,98175.25
2023-02-16T04:02:29.392Z,98180.63
2023-02-16T04:04:58.383Z,98183.41
2023-02-16T04:07:26.562Z,98178.88
2023-02-16T04:09:54.829Z,98174.47
2023-02-16T04:12:37.807Z,98166.41
2023-02-16T04:15:07.518Z,98174.47
2023-02-16T04:17:37.267Z,98171.78
2023-02-16T04:20:06.288Z,98169.09
2023-02-16T04:22:34.534Z,98169.09
2023-02-16T04:25:02.720Z,98169.09
2023-02-16T04:27:30.944Z,98160.09
2023-02-16T04:29:59.142Z,98157.41
2023-02-16T04:32:27.479Z,98162.75
2023-02-16T04:34:57.146Z,98149.34
2023-02-16T04:37:25.318Z,98143.13
2023-02-16T04:39:53.547Z,98144.06
2023-02-16T04:42:21.745Z,98143.19
2023-02-16T04:44:50.022Z,98137.81
2023-02-16T04:47:18.117Z,98129.72
2023-02-16T04:49:47.554Z,98127.03
2023-02-16T04:52:18.762Z,98120.78
2023-02-16T04:54:47.063Z,98129.72
2023-02-16T04:57:15.673Z,98123.53
2023-02-16T04:59:43.879Z,98119.19
2023-02-16T05:02:12.233Z,98127.34
2023-02-16T05:04:42.061Z,98125.50
2023-02-16T05:07:10.292Z,98124.56
2023-02-16T05:09:39.849Z,98122.75
2023-02-16T05:12:25.698Z,98123.59
2023-02-16T05:14:53.901Z,98119.09
2023-02-16T05:17:23.233Z,98125.34
2023-02-16T05:19:52.460Z,98121.78
2023-02-16T05:22:20.721Z,98123.53
2023-02-16T05:24:50.409Z,98123.53
2023-02-16T05:27:19.321Z,98128.91
2023-02-16T05:29:47.548Z,98126.22
2023-02-16T05:32:16.188Z,98134.28
2023-02-16T05:34:45.688Z,98133.31
2023-02-16T05:37:14.081Z,98128.03
2023-02-16T05:39:42.259Z,98129.75
2023-02-16T05:42:11.872Z,98136.00
2023-02-16T05:44:40.047Z,98136.88
2023-02-16T05:47:08.212Z,98128.81
2023-02-16T05:49:36.408Z,98136.00
2023-02-16T05:52:04.634Z,98132.41
2023-02-16T05:54:32.961Z,98147.63
2023-02-16T05:57:01.180Z,98141.28
2023-02-16T05:59:30.789Z,98143.97
2023-02-16T06:01:58.960Z,98149.34
2023-02-16T06:04:28.742Z,98152.03
2023-02-16T06:06:56.940Z,98155.59
2023-02-16T06:09:25.195Z,98146.66
2023-02-16T06:11:53.839Z,98155.50
2023-02-16T06:14:22.124Z,98155.50
2023-02-16T06:16:52.701Z,98151.00
2023-02-16T06:19:21.262Z,98155.50
2023-02-16T06:21:49.844Z,98154.47
2023-02-16T06:24:18.099Z,98163.41
2023-02-16T06:26:46.325Z,98161.59
2023-02-16T06:29:14.715Z,98158.97
2023-02-16T06:31:43.041Z,98167.13
2023-02-16T06:34:12.696Z,98171.63
2023-02-16T06:36:42.588Z,98163.56
2023-02-16T06:39:11.090Z,98163.56
2023-02-16T06:41:40.624Z,98168.00
2023-02-16T06:44:09.812Z,98159.78
2023-02-16T06:46:38.085Z,98161.59
2023-02-16T06:49:06.383Z,98161.53
2023-02-16T06:51:35.995Z,98160.50
2023-02-16T06:54:04.532Z,98161.31
2023-02-16T06:56:33.190Z,98158.63
2023-02-16T06:59:01.677Z,98161.31
2023-02-16T07:01:30.321Z,98159.47
2023-02-16T07:03:58.699Z,98168.38
2023-02-16T07:06:28.526Z,98162.13
2023-02-16T07:08:58.127Z,98166.59
2023-02-16T07:11:26.385Z,98162.94
2023-02-16T07:13:54.648Z,98164.69
2023-02-16T07:16:22.886Z,98162.88
2023-02-16T07:18:51.486Z,98167.38
2023-02-16T07:21:19.661Z,98162.88
2023-02-16T07:23:47.814Z,98166.50
2023-02-16T07:26:17.368Z,98165.63
2023-02-16T07:28:45.564Z,98169.50
2023-02-16T07:31:14.934Z,98175.09
2023-02-16T07:33:43.055Z,98174.25
2023-02-16T07:36:11.560Z,98172.50
2023-02-16T07:38:42.018Z,98176.06
2023-02-16T07:41:10.979Z,98176.06
2023-02-16T07:43:42.973Z,98172.50
2023-02-16T07:46:11.574Z,98172.50
2023-02-16T07:48:39.805Z,98166.25
2023-02-16T07:51:08.232Z,98164.53
2023-02-16T07:53:36.490Z,98166.31
2023-02-16T07:56:05.032Z,98169.00
2023-02-16T07:58:33.269Z,98172.56
2023-02-16T08:01:09.392Z,98165.44
2023-02-16T08:03:37.704Z,98176.19
2023-02-16T08:06:06.488Z,98173.50
2023-02-16T08:08:35.497Z,98167.28
2023-02-16T08:11:09.623Z,98172.66
2023-02-16T08:13:37.772Z,98176.28
2023-02-16T08:16:10.663Z,98177.16
2023-02-16T08:18:39.053Z,98179.75
2023-02-16T08:21:14.469Z,98172.66
2023-02-16T08:23:43.678Z,98178.03
2023-02-16T08:26:12.206Z,98173.50
2023-02-16T08:28:46.191Z,98173.50
2023-02-16T08:31:17.161Z,98172.66
2023-02-16T08:33:45.536Z,98172.66
2023-02-16T08:36:19.064Z,98171.78
2023-02-16T08:38:50.325Z,98167.28
2023-02-16T08:41:18.828Z,98178.97
2023-02-16T08:43:47.047Z,98175.34
2023-02-16T08:46:16.836Z,98171.78
2023-02-16T08:48:45.465Z,98169.09
2023-02-16T08:51:15.089Z,98169.09
2023-02-16T08:53:43.361Z,98170.91
2023-02-16T08:56:12.340Z,98161.03
2023-02-16T08:58:43.506Z,98168.22
2023-02-16T09:01:12.054Z,98168.22
2023-02-16T09:03:43.165Z,98161.03
2023-02-16T09:06:12.314Z,98154.78
2023-02-16T09:08:40.574Z,98154.78
2023-02-16T09:11:09.787Z,98155.69
2023-02-16T09:13:38.665Z,98155.69
2023-02-16T09:16:08.137Z,98143.34
2023-02-16T09:18:36.954Z,98151.41
2023-02-16T09:21:07.547Z,98152.28
2023-02-16T09:23:36.088Z,98154.09
2023-02-16T09:26:07.204Z,98150.44
2023-02-16T09:28:35.441Z,98152.19
2023-02-16T09:31:10.489Z,98149.50
2023-02-16T09:33:38.870Z,98146.75
2023-02-16T09:36:09.570Z,98136.97
2023-02-16T09:38:37.877Z,98140.44
2023-02-16T09:41:11.646Z,98136.78
2023-02-16T09:43:46.480Z,98136.72
2023-02-16T09:46:15.460Z,98138.47
2023-02-16T09:48:45.608Z,98133.97
2023-02-16T09:51:17.224Z,98135.59
2023-02-16T09:53:47.124Z,98135.56
2023-02-16T09:56:20.263Z,98136.41
2023-02-16T09:58:50.316Z,98138.06
2023-02-16T10:01:24.531Z,98130.00
2023-02-16T10:03:56.894Z,98129.91
2023-02-16T10:06:46.605Z,98132.56
2023-02-16T10:09:16.520Z,98130.72
2023-02-16T10:11:49.064Z,98134.28
2023-02-16T10:14:26.066Z,98126.22
2023-02-16T10:16:56.526Z,98128.91
2023-02-16T10:19:26.457Z,98125.28
2023-02-16T10:21:57.353Z,98126.13
2023-02-16T10:24:26.021Z,98122.59
2023-02-16T10:26:57.169Z,98124.31
2023-02-16T10:29:27.073Z,98115.38
2023-02-16T10:32:01.713Z,98109.19
2023-02-16T10:34:37.855Z,98098.34
2023-02-16T10:37:18.287Z,98104.59
2023-02-16T10:39:49.425Z,98108.13
2023-02-16T10:42:21.439Z,98099.22
2023-02-16T10:44:52.281Z,98100.06
2023-02-16T10:47:28.091Z,98102.75
2023-02-16T10:49:56.728Z,98098.34
2023-02-16T10:52:26.276Z,98092.88
2023-02-16T10:54:54.556Z,98088.38
2023-02-16T10:57:26.838Z,98090.13
2023-02-16T10:59:55.165Z,98084.75
2023-02-16T11:02:25.821Z,98087.44
2023-02-16T11:04:54.711Z,98083.81
2023-02-16T11:07:23.428Z,98080.16
2023-02-16T11:09:54.968Z,98076.63
2023-02-16T11:12:29.555Z,98086.41
2023-02-16T11:15:00.663Z,98081.91
2023-02-16T11:17:29.110Z,98086.31
2023-02-16T11:20:01.727Z,98083.63
2023-02-16T11:22:35.209Z,98086.31
2023-02-16T11:25:27.005Z,98071.97
2023-02-16T11:27:57.084Z,98079.94
2023-02-16T11:30:32.810Z,98071.00
2023-02-16T11:35:48.689Z,98071.88
2023-02-16T11:38:30.196Z,98073.63
2023-02-16T11:41:00.079Z,98067.28
2023-02-16T11:43:29.671Z,98064.59
2023-02-16T11:45:59.283Z,98069.03
2023-02-16T11:48:29.480Z,98058.28
2023-02-16T11:50:58.926Z,98054.72
2023-02-16T11:53:28.253Z,98050.22
2023-02-16T11:56:14.643Z,98044.00
2023-02-16T11:58:43.054Z,98040.34
2023-02-16T12:01:18.810Z,98044.88
2023-02-16T12:04:05.093Z,98037.66
2023-02-16T12:06:40.414Z,98038.53
2023-02-16T12:09:13.298Z,98026.91
2023-02-16T12:11:46.898Z,98030.56
2023-02-16T12:14:25.174Z,98035.84
2023-02-16T12:16:55.993Z,98026.91
2023-02-16T12:19:31.842Z,98009.84
2023-02-16T12:22:03.632Z,98018.69
2023-02-16T12:24:38.825Z,98011.56
2023-02-16T12:27:11.808Z,98011.50
2023-02-16T12:29:44.966Z,98010.56
2023-02-16T12:32:22.259Z,98004.25
2023-02-16T12:34:57.065Z,97999.72
2023-02-16T12:37:28.625Z,97994.34
2023-02-16T12:39:59.905Z,97992.53
2023-02-16T12:42:53.421Z,97992.53
2023-02-16T12:45:22.566Z,97988.03
2023-02-16T12:47:54.214Z,97980.84
2023-02-16T12:50:23.243Z,97978.16
2023-02-16T12:52:54.154Z,97977.19
2023-02-16T12:55:23.280Z,97973.56
2023-02-16T12:57:57.131Z,97974.41
2023-02-16T13:00:27.236Z,97964.53
2023-02-16T13:02:58.092Z,97971.66
2023-02-16T13:05:28.484Z,97965.41
2023-02-16T13:07:58.264Z,97967.13
2023-02-16T13:10:28.641Z,97958.25
2023-02-16T13:13:02.048Z,97961.72
2023-02-16T13:15:33.101Z,97959.03
2023-02-16T13:18:03.978Z,97954.50
2023-02-16T13:20:33.755Z,97948.28
2023-02-16T13:23:40.208Z,97949.13
2023-02-16T13:26:18.132Z,97941.88
2023-02-16T13:29:25.345Z,97944.56
2023-02-16T13:31:59.959Z,97944.56
2023-02-16T13:34:43.811Z,97947.25
2023-02-16T13:37:22.022Z,97949.94
2023-02-16T13:40:00.583Z,97941.88
2023-02-16T13:42:52.158Z,97947.09
2023-02-16T13:45:22.636Z,97946.13
2023-02-16T13:47:50.948Z,97942.50
2023-02-16T13:50:28.209Z,97945.19
2023-02-16T13:52:57.713Z,97944.31
2023-02-16T13:55:28.648Z,97952.47
2023-02-16T13:58:08.240Z,97956.09
2023-02-16T14:00:39.307Z,97951.69
2023-02-16T14:03:12.444Z,97958.88
2023-02-16T14:05:41.868Z,97954.38
2023-02-16T14:08:15.021Z,97957.16
2023-02-16T14:11:06.149Z,97953.66
2023-02-16T14:13:35.584Z,97950.97
2023-02-16T14:16:08.911Z,97945.66
2023-02-16T14:18:43.161Z,97942.97
2023-02-16T14:21:19.216Z,97941.25
2023-02-16T14:23:47.403Z,97946.63
2023-02-16T14:26:16.169Z,97943.94
2023-02-16T14:29:12.859Z,97946.72
2023-02-16T14:31:45.804Z,97953.13
2023-02-16T14:34:18.233Z,97950.53
2023-02-16T14:37:28.009Z,97948.88
2023-02-16T14:40:07.828Z,97948.00
2023-02-16T14:42:36.735Z,97943.50
2023-02-16T14:45:15.613Z,97943.50
2023-02-16T14:47:48.610Z,97943.50
2023-02-16T14:50:28.646Z,97947.13
2023-02-16T14:53:29.198Z,97937.25
2023-02-16T14:56:14.821Z,97943.50
2023-02-16T14:58:48.450Z,97948.09
2023-02-16T15:01:17.983Z,97952.47
2023-02-16T15:03:50.412Z,97949.81
2023-02-16T15:06:22.272Z,97953.34
2023-02-16T15:08:58.318Z,97954.22
2023-02-16T15:11:30.458Z,97956.13
2023-02-16T15:14:04.306Z,97958.72
2023-02-16T15:16:32.851Z,97955.13
2023-02-16T15:19:04.650Z,97955.16
2023-02-16T15:21:36.848Z,97959.69
2023-02-16T15:24:06.119Z,97957.94
2023-02-16T15:26:35.742Z,97958.81
2023-02-16T15:29:05.604Z,97956.22
2023-02-16T15:31:34.983Z,97951.69
2023-02-16T15:34:05.910Z,97960.72
2023-02-16T15:36:36.056Z,97951.78
2023-02-16T15:39:05.884Z,97951.88
2023-02-16T15:41:35.171Z,97943.84
2023-02-16T15:44:03.949Z,97948.31
2023-02-16T15:46:33.839Z,97950.13
2023-02-16T15:49:13.934Z,97951.09
2023-02-16T15:51:43.274Z,97950.22
2023-02-16T15:54:18.002Z,97951.09
2023-02-16T15:56:47.340Z,97961.84
2023-02-16T15:59:32.920Z,97960.97
2023-02-16T16:02:04.126Z,97961.84
2023-02-16T16:04:38.821Z,97964.53
2023-02-16T16:07:12.138Z,97958.28
2023-02-16T16:09:40.377Z,97969.91
2023-02-16T16:12:09.553Z,97971.72
2023-02-16T16:14:40.635Z,97959.16
2023-02-16T16:17:09.079Z,97962.78
2023-02-16T16:19:38.986Z,97961.06
2023-02-16T16:22:17.584Z,97967.31
2023-02-16T16:24:48.712Z,97962.78
2023-02-16T16:27:16.949Z,97964.63
2023-02-16T16:29:46.535Z,97972.69
2023-02-16T16:32:19.681Z,97970.06
2023-02-16T16:34:49.375Z,97970.94
2023-02-16T16:37:25.520Z,97967.38
2023-02-16T16:40:00.925Z,97975.44
2023-02-16T16:42:29.253Z,97975.44
2023-02-16T16:44:59.720Z,97981.75
2023-02-16T16:47:30.392Z,97987.03
2023-02-16T16:50:01.040Z,97985.22
2023-02-16T16:52:41.679Z,97989.72
2023-02-16T16:55:27.327Z,97988.84
2023-02-16T16:57:56.225Z,97999.53
2023-02-16T17:00:25.139Z,97995.09
2023-02-16T17:02:53.308Z,98008.44
2023-02-16T17:05:22.921Z,98009.22
2023-02-16T17:07:52.034Z,98011.84
2023-02-16T17:10:21.178Z,98013.66
2023-02-16T17:12:50.027Z,98019.81
2023-02-16T17:15:29.031Z,98013.56
2023-02-16T17:17:57.217Z,98014.44
2023-02-16T17:20:26.784Z,98021.63
2023-02-16T17:22:55.039Z,98020.69
2023-02-16T17:25:23.323Z,98017.13
2023-02-16T17:27:51.678Z,98018.06
2023-02-16T17:30:19.932Z,98016.25
2023-02-16T17:32:48.320Z,98022.50
2023-02-16T17:35:16.657Z,98026.06
2023-02-16T17:37:46.383Z,98020.69
2023-02-16T17:40:17.473Z,98019.72
2023-02-16T17:42:45.724Z,98026.91
2023-02-16T17:45:13.900Z,98034.03
2023-02-16T17:47:42.440Z,98032.28
2023-02-16T17:50:12.780Z,98034.97
2023-02-16T17:52:41.121Z,98034.03
2023-02-16T17:55:11.011Z,98027.69
2023-02-16T17:57:39.638Z,98026.84
2023-02-16T18:00:09.503Z,98030.38
2023-02-16T18:02:38.296Z,98031.25
2023-02-16T18:05:07.022Z,98037.50
2023-02-16T18:07:35.313Z,98035.75
2023-02-16T18:10:03.526Z,98032.13
2023-02-16T18:12:33.196Z,98039.22
2023-02-16T18:15:01.513Z,98044.53
2023-02-16T18:17:29.778Z,98040.97
2023-02-16T18:19:58.015Z,98040.97
2023-02-16T18:22:26.212Z,98033.78
2023-02-16T18:24:54.491Z,98042.69
2023-02-16T18:27:22.576Z,98052.50
2023-02-16T18:29:52.160Z,98048.94
2023-02-16T18:32:20.295Z,98055.19
2023-02-16T18:34:48.398Z,98054.22
2023-02-16T18:37:16.613Z,98049.72
2023-02-16T18:39:44.922Z,98053.28
2023-02-16T18:42:13.463Z,98056.84
2023-02-16T18:44:41.815Z,98049.63
2023-02-16T18:47:12.023Z,98058.47
2023-02-16T18:49:40.483Z,98058.41
2023-02-16T18:52:08.812Z,98066.41
2023-02-16T18:54:36.927Z,98066.41
2023-02-16T18:57:05.274Z,98069.09
2023-02-16T18:59:34.372Z,98077.16
2023-02-16T19:02:03.021Z,98077.16
2023-02-16T19:04:33.250Z,98070.91
2023-02-16T19:07:01.736Z,98068.13
2023-02-16T19:09:29.932Z,98062.75
2023-02-16T19:11:58.177Z,98065.41
2023-02-16T19:14:26.469Z,98069.00
2023-02-16T19:16:54.684Z,98077.94
2023-02-16T19:19:22.861Z,98067.22
2023-02-16T19:21:52.483Z,98072.56
2023-02-16T19:24:20.763Z,98076.13
2023-02-16T19:26:49.003Z,98071.69
2023-02-16T19:29:17.583Z,98071.69
2023-02-16T19:31:47.651Z,98077.94
2023-02-16T19:34:17.124Z,98076.19
2023-02-16T19:36:45.284Z,98078.88
2023-02-16T19:39:14.926Z,98073.44
2023-02-16T19:41:44.226Z,98085.03
2023-02-16T19:44:13.994Z,98081.50
2023-02-16T19:46:42.750Z,98083.22
2023-02-16T19:49:13.180Z,98081.44
2023-02-16T19:51:41.453Z,98083.16
2023-02-16T19:54:10.011Z,98088.50
2023-02-16T19:56:40.700Z,98088.50
2023-02-16T19:59:09.931Z,98085.84
2023-02-16T20:01:38.249Z,98092.09
2023-02-16T20:04:06.544Z,98090.28
2023-02-16T20:06:37.268Z,98094.75
2023-02-16T20:09:05.720Z,98093.84
2023-02-16T20:11:34.002Z,98086.63
2023-02-16T20:14:04.132Z,98092.88
2023-02-16T20:16:32.739Z,98098.25
2023-02-16T20:19:01.191Z,98092.88
2023-02-16T20:21:30.080Z,98096.34
2023-02-16T20:23:59.470Z,98095.47
2023-02-16T20:26:28.729Z,98090.09
2023-02-16T20:28:57.400Z,98095.47
2023-02-16T20:31:29.149Z,98097.22
2023-02-16T20:33:57.469Z,98088.28
2023-02-16T20:36:25.577Z,98089.25
2023-02-16T20:38:53.828Z,98090.97
2023-02-16T20:41:22.094Z,98092.72
2023-02-16T20:43:50.569Z,98089.16
2023-02-16T20:46:18.907Z,98086.47
2023-02-16T20:48:50.179Z,98085.50
2023-02-16T20:51:18.353Z,98080.13
2023-02-16T20:53:46.608Z,98089.16
2023-02-16T20:56:16.235Z,98096.25
2023-02-16T20:58:45.172Z,98088.19
2023-02-16T21:01:14.294Z,98096.19
2023-02-16T21:03:42.599Z,98086.28
2023-02-16T21:06:12.231Z,98087.25
2023-02-16T21:08:40.450Z,98088.97
2023-02-16T21:11:08.633Z,98081.00
2023-02-16T21:13:36.972Z,98089.06
2023-02-16T21:16:05.804Z,98084.56
2023-02-16T21:18:34.200Z,98084.56
2023-02-16T21:21:02.842Z,98087.25
2023-02-16T21:23:32.549Z,98080.06
2023-02-16T21:26:00.945Z,98078.31
2023-02-16T21:28:29.265Z,98072.94
2023-02-16T21:30:57.694Z,98075.63
2023-02-16T21:33:25.939Z,98072.06
2023-02-16T21:35:54.192Z,98075.63
2023-02-16T21:38:22.395Z,98079.19
2023-02-16T21:41:09.557Z,98076.59
2023-02-16T21:43:37.800Z,98065.91
2023-02-16T21:46:08.758Z,98068.59
2023-02-16T21:48:50.184Z,98067.75
2023-02-16T21:51:19.029Z,98066.00
2023-02-16T21:53:47.222Z,98064.28
2023-02-16T21:56:27.836Z,98063.50
2023-02-16T21:58:56.244Z,98069.72
2023-02-16T22:01:25.071Z,98066.19
2023-02-16T22:03:58.600Z,98065.31
2023-02-16T22:06:27.958Z,98064.44
2023-02-16T22:08:56.158Z,98068.09
2023-02-16T22:11:24.639Z,98067.22
2023-02-16T22:13:58.139Z,98064.59
2023-02-16T22:16:26.636Z,98069.09
2023-02-16T22:18:57.816Z,98062.84
2023-02-16T22:21:26.251Z,98061.09
2023-02-16T22:23:54.496Z,98061.94
2023-02-16T22:26:24.472Z,98070.97
2023-02-16T22:28:52.709Z,98070.09
2023-02-16T22:31:23.240Z,98063.00
2023-02-16T22:33:56.202Z,98062.13
2023-02-16T22:36:24.553Z,98056.75
2023-02-16T22:38:53.074Z,98061.25
2023-02-16T22:41:21.409Z,98063.06
2023-02-16T22:43:49.687Z,98057.69
2023-02-16T22:46:18.147Z,98055.09
2023-02-16T22:48:47.902Z,98054.16
2023-02-16T22:51:16.378Z,98063.16
2023-02-16T22:53:44.646Z,98063.16
2023-02-16T22:56:16.726Z,98064.97
2023-02-16T22:58:44.927Z,98061.44
2023-02-16T23:01:13.933Z,98053.38
2023-02-16T23:03:42.929Z,98053.44
2023-02-16T23:06:16.148Z,98048.06
2023-02-16T23:08:44.539Z,98047.22
2023-02-16T23:11:12.827Z,98049.03
2023-02-16T23:13:41.060Z,98054.50
2023-02-16T23:16:10.406Z,98052.66
2023-02-16T23:18:38.625Z,98050.06
2023-02-16T23:21:08.479Z,98049.19
2023-02-16T23:23:38.188Z,98055.44
2023-02-16T23:26:07.103Z,98051.88
2023-02-16T23:28:35.556Z,98049.19
2023-02-16T23:31:04.018Z,98044.78
2023-02-16T23:33:32.320Z,98043.03
2023-02-16T23:36:00.693Z,98040.34
2023-02-16T23:38:28.794Z,98051.06
2023-02-16T23:40:59.081Z,98049.34
2023-02-16T23:43:27.445Z,98053.84
2023-02-16T23:45:55.802Z,98052.97
2023-02-16T23:48:24.158Z,98057.50
2023-02-16T23:50:52.579Z,98049.44
2023-02-16T23:53:20.949Z,98038.72
2023-02-16T23:55:59.357Z,98038.72
2023-02-16T23:58:28.570Z,98043.19
